Latest Weather Observations for Oodnadatta

IDS60801

Issued at 1:01 pm CDT Wednesday 10 February 2016 (issued every 30 minutes, with the page automatically refreshed every 10 minutes)

About weather observations | Map of weather stations | Latest weather observations for SA | Other Formats
Station Details ID: 017043 Name: OODNADATTA AIRPORT Lat: -27.56 Lon: 135.45 Height: 116.5 m
Data from the previous 72 hours. | See also: Recent months at Oodnadatta
Date/Time
CDT
Temp
°C
App
Temp
°C
Dew
Point
Rel
Hum
%
Delta-T
°C
Wind Press
QNH
hPa
Press
MSL
hPa
Rain
since 9 am
mm
Dir
 
Spd
km/h
Gust
km/h
Spd
kts
Gust
kts
10/01:00pm 37.8 34.7 3.5 12 18.3 NW 9 15 5 8 1011.4 1010.6 0.0
10/12:30pm 37.5 34.3 3.3 12 18.2 E 9 15 5 8 1012.0 1011.2 0.0
10/12:00pm 36.4 33.9 3.6 13 17.4 W 6 11 3 6 1012.5 1011.7 0.0
10/11:30am 35.7 32.9 5.1 15 16.5 SSE 9 13 5 7 1012.9 1012.1 0.0
10/11:00am 34.0 31.4 6.3 18 15.1 SSE 9 13 5 7 1013.1 1012.3 0.0
10/10:30am 31.5 29.4 6.5 21 13.5 S 7 11 4 6 1013.2 1012.4 0.0
10/10:00am 30.2 27.6 6.1 22 12.8 S 9 13 5 7 1013.1 1012.3 0.0
10/09:30am 29.4 26.4 6.1 23 12.4 S 11 13 6 7 1013.1 1012.3 0.0
10/09:00am 28.0 24.4 5.0 23 11.9 SSW 13 17 7 9 1013.0 1012.2 0.0
10/08:30am 26.8 23.1 4.6 24 11.3 SSW 13 15 7 8 1012.9 1012.1 0.0
10/08:00am 25.7 22.7 4.2 25 10.8 S 9 11 5 6 1012.8 1012.0 0.0
10/07:30am 24.9 21.4 3.5 25 10.6 SSW 11 15 6 8 1012.4 1011.6 0.0
10/07:00am 24.6 20.5 4.4 27 10.1 SSW 15 19 8 10 1011.9 1011.1 0.0
10/06:30am 24.0 20.3 4.4 28 9.8 SW 13 24 7 13 1011.6 1010.8 0.0
10/06:00am 24.3 22.3 4.6 28 9.9 E 4 13 2 7 1011.4 1010.6 0.0
10/05:30am 24.6 21.9 3.8 26 10.3 S 7 11 4 6 1011.1 1010.3 0.0
10/05:00am 26.2 22.1 4.6 25 11.0 SSW 15 17 8 9 1010.9 1010.1 0.0
10/04:30am 26.3 21.9 4.7 25 11.0 S 17 19 9 10 1010.9 1010.1 0.0
10/04:00am 26.0 22.9 5.6 27 10.5 S 11 13 6 7 1010.6 1009.8 0.0
10/03:30am 26.2 23.0 5.2 26 10.8 SSE 11 13 6 7 1010.6 1009.8 0.0
10/03:00am 26.9 23.7 5.2 25 11.2 SSW 11 13 6 7 1010.5 1009.7 0.0
10/02:30am 27.3 25.8 5.0 24 11.5 SW 2 9 1 5 1010.6 1009.8 0.0
10/02:00am 27.1 25.3 5.4 25 11.2 SW 4 6 2 3 1010.7 1009.9 0.0
10/01:30am 28.3 26.1 5.2 23 12.0 ENE 6 7 3 4 1010.9 1010.1 0.0
10/01:00am 29.2 27.0 5.3 22 12.5 ENE 6 7 3 4 1011.2 1010.4 0.0
10/12:30am 29.1 26.6 4.6 21 12.7 ENE 7 9 4 5 1011.4 1010.6 0.0
10/12:00am 30.2 26.6 4.8 20 13.3 ENE 13 15 7 8 1011.6 1010.8 0.0
 
Date/Time
CDT
Temp
°C
App
Temp
°C
Dew
Point
Rel
Hum
%
Delta-T
°C
Wind Press
QNH
hPa
Press
MSL
hPa
Rain
since 9 am
mm
Dir
 
Spd
km/h
Gust
km/h
Spd
kts
Gust
kts
09/11:30pm 31.8 27.7 4.6 18 14.3 ENE 15 17 8 9 1011.8 1011.0 0.0
09/11:00pm 32.8 28.4 4.6 17 14.9 ENE 17 19 9 10 1011.9 1011.1 0.0
09/10:30pm 34.0 28.8 3.7 15 15.9 E 20 24 11 13 1012.0 1011.2 0.0
09/10:00pm 34.9 29.1 4.4 15 16.2 E 24 28 13 15 1011.8 1011.0 0.0
09/09:30pm 35.4 28.4 3.9 14 16.7 E 30 37 16 20 1011.6 1010.8 0.0
09/09:00pm 35.8 29.2 4.2 14 16.9 ESE 28 35 15 19 1011.3 1010.5 0.0
09/08:30pm 36.4 30.6 4.6 14 17.1 ESE 24 30 13 16 1010.9 1010.1 0.0
09/08:00pm 37.5 31.3 4.4 13 17.9 ESE 26 33 14 18 1010.6 1009.8 0.0
09/07:30pm 38.7 32.9 4.2 12 18.7 ESE 24 33 13 18 1010.3 1009.6 0.0
09/07:00pm 39.3 33.7 3.4 11 19.3 SE 22 32 12 17 1010.3 1009.6 0.0
09/06:30pm 39.8 34.3 3.8 11 19.5 SSE 22 35 12 19 1010.2 1009.5 0.0
09/06:00pm 39.1 34.1 4.5 12 18.9 ESE 20 32 11 17 1010.2 1009.5 0.0
09/05:30pm 40.0 33.4 4.0 11 19.6 SSE 28 41 15 22 1010.3 1009.6 0.0
09/05:05pm 40.2 35.6 5.4 12 19.3 SE 19 35 10 19 1010.3 1009.6 0.0
09/05:00pm 39.5 35.5 4.8 12 19.0 SE 15 30 8 16 1010.5 1009.7 0.0
09/04:30pm 39.9 35.6 5.1 12 19.2 SE 17 39 9 21 1010.6 1009.8 0.0
09/04:22pm 39.1 32.6 4.5 12 18.9 SE 28 44 15 24 1010.8 1010.0 0.0
09/04:00pm 39.9 35.6 5.1 12 19.2 S 17 28 9 15 1011.0 1010.2 0.0
09/03:30pm 39.5 35.0 6.0 13 18.7 SE 19 33 10 18 1011.2 1010.4 0.0
09/03:00pm 38.6 33.2 6.3 14 18.0 SSE 24 37 13 20 1011.8 1011.0 0.0
09/02:30pm 39.5 35.6 7.1 14 18.4 SE 17 30 9 16 1012.2 1011.4 0.0
09/02:00pm 39.2 35.8 7.8 15 18.0 ESE 15 22 8 12 1012.7 1011.9 0.0
09/01:30pm 38.5 34.9 8.2 16 17.4 ENE 17 30 9 16 1013.2 1012.4 0.0
09/01:00pm 38.5 35.4 11.5 20 16.3 ESE 19 32 10 17 1013.6 1012.8 0.0
09/12:30pm 37.6 34.4 10.0 19 16.2 E 17 28 9 15 1014.0 1013.2 0.0
09/12:00pm 36.7 32.2 10.1 20 15.6 E 24 32 13 17 1014.4 1013.6 0.0
09/11:30am 35.9 31.2 9.4 20 15.3 ESE 24 37 13 20 1014.7 1013.9 0.0
09/11:00am 34.4 29.0 9.6 22 14.3 SE 28 37 15 20 1014.8 1014.0 0.0
09/10:30am 33.5 27.9 8.9 22 13.9 SE 28 37 15 20 1015.0 1014.2 0.0
09/10:00am 32.7 26.9 9.5 24 13.2 SE 30 37 16 20 1015.0 1014.2 0.0
09/09:30am 31.7 26.6 9.3 25 12.7 SE 26 37 14 20 1014.9 1014.1 0.0
09/09:26am 31.3 27.6 9.5 26 12.4 SE 19 37 10 20 1014.8 1014.0 0.0
09/09:00am 28.1 24.6 5.6 24 11.7 S 13 19 7 10 1014.9 1014.1 0.0
09/08:30am 26.9 23.6 4.6 24 11.4 S 11 13 6 7 1014.9 1014.1 0.0
09/08:00am 26.0 22.8 3.3 23 11.2 S 9 13 5 7 1014.8 1014.0 0.0
09/07:30am 25.0 20.8 3.6 25 10.6 S 15 17 8 9 1014.3 1013.5 0.0
09/07:00am 24.8 20.4 4.5 27 10.2 SSE 17 17 9 9 1013.8 1013.0 0.0
09/06:30am 25.3 21.1 3.9 25 10.7 S 15 17 8 9 1013.6 1012.8 0.0
09/06:00am 25.4 21.9 3.4 24 10.9 S 11 11 6 6 1013.4 1012.6 0.0
09/05:30am 26.5 22.3 3.7 23 11.4 SSE 15 17 8 9 1013.0 1012.2 0.0
09/05:00am 27.6 22.5 4.0 22 12.0 SSE 20 22 11 12 1013.0 1012.2 0.0
09/04:30am 28.0 23.1 4.3 22 12.1 SSE 19 22 10 12 1012.9 1012.1 0.0
09/04:00am 28.7 23.8 4.9 22 12.3 SSE 20 26 11 14 1012.8 1012.0 0.0
09/03:30am 29.0 24.1 5.1 22 12.4 SSE 20 24 11 13 1012.8 1012.0 0.0
09/03:00am 29.7 24.8 5.1 21 12.9 SSE 20 28 11 15 1012.9 1012.1 0.0
09/02:30am 29.5 24.6 4.2 20 13.0 SSE 19 22 10 12 1012.9 1012.1 0.0
09/02:00am 29.4 25.0 4.8 21 12.8 S 17 22 9 12 1013.3 1012.5 0.0
09/01:30am 28.7 26.0 5.5 23 12.1 SE 9 13 5 7 1013.3 1012.5 0.0
09/01:00am 28.9 25.8 5.7 23 12.2 SE 11 13 6 7 1013.5 1012.7 0.0
09/12:30am 29.3 26.3 6.0 23 12.3 SSE 11 11 6 6 1013.7 1012.9 0.0
09/12:00am 30.0 27.8 6.0 22 12.8 SSE 7 11 4 6 1013.7 1012.9 0.0
 
Date/Time
CDT
Temp
°C
App
Temp
°C
Dew
Point
Rel
Hum
%
Delta-T
°C
Wind Press
QNH
hPa
Press
MSL
hPa
Rain
since 9 am
mm
Dir
 
Spd
km/h
Gust
km/h
Spd
kts
Gust
kts
08/11:30pm 30.3 28.1 6.2 22 12.9 SSE 7 9 4 5 1013.7 1012.9 0.0
08/11:00pm 30.9 28.8 6.0 21 13.3 ESE 6 7 3 4 1013.6 1012.8 0.0
08/10:30pm 31.6 28.6 5.9 20 13.8 ESE 11 11 6 6 1013.6 1012.8 0.0
08/10:00pm 32.2 28.8 5.7 19 14.2 ESE 13 15 7 8 1013.5 1012.7 0.0
08/09:30pm 33.8 29.9 5.4 17 15.3 E 15 17 8 9 1013.3 1012.5 0.0
08/09:00pm 35.1 29.7 4.6 15 16.3 ESE 22 30 12 16 1013.2 1012.4 0.0
08/08:30pm 35.9 29.5 5.2 15 16.6 ESE 28 35 15 19 1013.0 1012.2 0.0
08/08:00pm 36.7 29.5 4.9 14 17.2 ESE 32 39 17 21 1012.6 1011.8 0.0
08/07:30pm 37.6 31.1 4.5 13 17.9 ESE 28 37 15 20 1012.3 1011.5 0.0
08/07:00pm 38.0 31.3 3.7 12 18.4 ESE 28 37 15 20 1011.9 1011.1 0.0
08/06:35pm 38.4 31.5 2.8 11 18.8 ESE 28 46 15 25 1011.7 1010.9 0.0
08/06:30pm 38.7 31.9 3.0 11 19.0 ESE 28 39 15 21 1011.9 1011.1 0.0
08/06:00pm 38.6 31.4 2.9 11 18.9 SE 30 43 16 23 1011.8 1011.0 0.0
08/05:30pm 39.2 31.1 3.4 11 19.2 ESE 35 52 19 28 1011.9 1011.1 0.0
08/05:16pm 38.9 32.1 3.1 11 19.1 ESE 28 46 15 25 1012.1 1011.3 0.0
08/05:00pm 39.3 32.6 3.4 11 19.3 SE 28 44 15 24 1012.2 1011.4 0.0
08/04:30pm 38.7 31.1 3.0 11 19.0 ESE 32 54 17 29 1012.5 1011.7 0.0
08/04:24pm 39.2 32.5 3.4 11 19.2 ESE 28 54 15 29 1012.5 1011.7 0.0
08/04:00pm 39.2 32.1 3.4 11 19.2 ESE 30 44 16 24 1012.7 1011.9 0.0
08/03:33pm 38.8 32.0 3.1 11 19.0 SE 28 46 15 25 1013.2 1012.4 0.0
08/03:30pm 39.7 32.2 3.7 11 19.4 SE 32 44 17 24 1013.1 1012.3 0.0
08/03:00pm 39.3 31.8 3.4 11 19.3 SE 32 41 17 22 1013.7 1012.9 0.0
08/02:43pm 38.4 31.5 2.8 11 18.8 ESE 28 46 15 25 1014.0 1013.2 0.0
08/02:30pm 37.9 31.2 3.6 12 18.3 SE 28 44 15 24 1014.2 1013.4 0.0
08/02:00pm 38.1 33.7 4.9 13 18.1 ESE 17 39 9 21 1014.5 1013.7 0.0
08/01:30pm 37.3 31.7 5.3 14 17.5 ESE 24 39 13 21 1015.1 1014.3 0.0
08/01:14pm 37.4 33.0 7.3 16 17.0 SE 20 54 11 29 1015.3 1014.5 0.0
08/01:00pm 37.1 32.5 8.0 17 16.6 SE 22 33 12 18 1015.6 1014.8 0.0
08/12:30pm 36.2 31.2 8.1 18 15.9 ESE 24 37 13 20 1016.2 1015.4 0.0
08/12:00pm 35.6 31.4 8.4 19 15.4 ESE 20 26 11 14 1016.5 1015.7 0.0
08/11:30am 34.7 30.9 9.9 22 14.3 SE 20 32 11 17 1016.8 1016.0 0.0
08/11:00am 33.0 28.8 9.7 24 13.4 SE 22 28 12 15 1016.9 1016.1 0.0
08/10:30am 32.7 28.6 10.1 25 13.0 SE 22 30 12 16 1016.9 1016.1 0.0
08/10:00am 31.5 27.5 9.1 25 12.6 SE 20 28 11 15 1017.0 1016.3 0.0
08/09:30am 30.5 27.4 8.8 26 12.1 SE 15 24 8 13 1016.9 1016.1 0.0
08/09:00am 28.3 25.8 6.4 25 11.6 S 9 13 5 7 1017.0 1016.3 0.0
08/08:30am 27.2 24.7 6.6 27 10.9 SSE 9 11 5 6 1016.7 1015.9 0.0
08/08:00am 25.5 23.3 6.2 29 10.0 S 7 9 4 5 1016.4 1015.6 0.0
08/07:30am 25.3 21.4 5.5 28 10.1 SSE 15 20 8 11 1016.2 1015.4 0.0
08/07:00am 24.4 21.3 7.1 33 9.1 S 13 17 7 9 1015.7 1014.9 0.0
08/06:30am 25.4 21.9 7.1 31 9.7 SE 15 20 8 11 1015.2 1014.4 0.0
08/06:00am 25.8 21.9 6.9 30 10.0 S 17 20 9 11 1014.9 1014.1 0.0
08/05:30am 25.4 22.5 8.0 33 9.3 S 13 17 7 9 1014.8 1014.0 0.0
08/05:00am 26.2 22.7 8.7 33 9.5 S 17 20 9 11 1014.5 1013.7 0.0
08/04:30am 26.2 24.7 10.4 37 8.9 SW 9 11 5 6 1014.4 1013.6 0.0
08/04:00am 26.8 25.0 10.9 37 9.0 S 11 17 6 9 1014.4 1013.6 0.0
08/03:30am 27.0 24.5 11.1 37 9.1 S 15 20 8 11 1014.4 1013.6 0.0
08/03:00am 26.6 24.0 10.7 37 9.0 SSW 15 20 8 11 1014.0 1013.2 0.0
08/02:30am 26.6 26.6 11.1 38 8.8 S 2 7 1 4 1014.0 1013.2 0.0
08/02:00am 27.1 26.6 10.8 36 9.3 ENE 4 7 2 4 1014.2 1013.4 0.0
08/01:30am 27.9 26.9 11.0 35 9.7 ENE 7 11 4 6 1014.3 1013.5 0.0
08/01:00am 28.1 28.0 10.8 34 9.9 E 2 6 1 3 1014.5 1013.7 0.0
08/12:30am 28.8 27.8 10.9 33 10.3 E 7 7 4 4 1014.6 1013.8 0.0
08/12:00am 29.4 28.0 11.0 32 10.6 E 9 13 5 7 1014.6 1013.8 0.0
 
Date/Time
CDT
Temp
°C
App
Temp
°C
Dew
Point
Rel
Hum
%
Delta-T
°C
Wind Press
QNH
hPa
Press
MSL
hPa
Rain
since 9 am
mm
Dir
 
Spd
km/h
Gust
km/h
Spd
kts
Gust
kts
07/11:30pm 30.8 28.7 11.2 30 11.4 E 13 17 7 9 1014.6 1013.8 0.0
07/11:00pm 31.7 28.9 11.5 29 11.8 E 17 19 9 10 1014.4 1013.6 0.0
07/10:30pm 32.5 29.1 11.1 27 12.5 E 20 24 11 13 1014.0 1013.2 0.0
07/10:00pm 33.1 29.3 11.0 26 12.9 E 22 32 12 17 1013.8 1013.0 0.0
07/09:30pm 33.6 28.2 9.6 23 13.8 E 28 33 15 18 1013.6 1012.8 0.0
07/09:00pm 34.1 27.5 8.7 21 14.4 E 33 46 18 25 1013.0 1012.2 0.0
07/08:30pm 34.7 28.8 7.7 19 15.1 E 28 35 15 19 1012.6 1011.8 0.0
07/08:00pm 35.7 29.1 7.7 18 15.8 E 32 39 17 21 1012.3 1011.5 0.0
07/07:30pm 36.4 30.1 7.4 17 16.3 ESE 30 39 16 21 1011.8 1011.0 0.0
07/07:00pm 37.3 31.4 7.3 16 16.9 ESE 28 41 15 22 1011.4 1010.6 0.0
07/06:30pm 37.8 32.2 8.6 17 16.8 ESE 28 41 15 22 1011.2 1010.4 0.0
07/06:00pm 37.5 32.8 9.2 18 16.4 ESE 24 33 13 18 1011.0 1010.2 0.0
07/05:30pm 37.5 32.4 9.2 18 16.4 SE 26 43 14 23 1011.2 1010.4 0.0
07/05:00pm 37.5 32.4 9.2 18 16.4 SE 26 37 14 20 1011.2 1010.4 0.0
07/04:30pm 37.3 32.1 9.0 18 16.4 SE 26 41 14 22 1011.3 1010.5 0.0
07/04:00pm 37.1 32.9 9.6 19 16.0 SE 22 37 12 20 1011.5 1010.7 0.0
07/03:30pm 37.5 32.4 9.2 18 16.4 SE 26 41 14 22 1011.8 1011.0 0.0
07/03:00pm 37.5 32.6 10.0 19 16.2 SE 26 41 14 22 1012.2 1011.4 0.0
07/02:30pm 37.4 32.1 9.9 19 16.1 SSE 28 44 15 24 1012.5 1011.7 0.0
07/02:26pm 36.8 32.3 10.2 20 15.6 SE 24 44 13 24 1012.3 1011.5 0.0
07/02:00pm 36.5 32.7 11.3 22 15.0 SSE 22 35 12 19 1012.8 1012.0 0.0
07/01:30pm 36.4 32.8 9.8 20 15.5 ESE 19 32 10 17 1013.2 1012.4 0.0

Other Formats:

Comma delimited format used in spreadsheet applications
http://www.bom.gov.au/fwo/IDS60801/IDS60801.94476.axf

JavaScript Object Notation format (JSON) in row-major order
http://www.bom.gov.au/fwo/IDS60801/IDS60801.94476.json